createdAt,value
2023-05-12T00:00:21.718Z,1.42
2023-05-12T00:01:21.744Z,1.46
2023-05-12T00:02:21.820Z,1.44
2023-05-12T00:03:21.860Z,1.50
2023-05-12T00:04:21.780Z,1.72
2023-05-12T00:05:21.766Z,1.48
2023-05-12T00:06:21.781Z,1.22
2023-05-12T00:07:21.776Z,1.75
2023-05-12T00:08:21.839Z,2.07
2023-05-12T00:09:21.846Z,1.75
2023-05-12T00:10:21.909Z,1.86
2023-05-12T00:11:21.837Z,1.65
2023-05-12T00:12:21.868Z,1.48
2023-05-12T00:13:21.926Z,1.81
2023-05-12T00:14:21.887Z,1.50
2023-05-12T00:15:21.901Z,1.54
2023-05-12T00:16:21.915Z,2.04
2023-05-12T00:17:21.970Z,1.55
2023-05-12T00:18:21.970Z,1.69
2023-05-12T00:19:21.943Z,1.73
2023-05-12T00:20:22.227Z,2.14
2023-05-12T00:21:21.962Z,2.12
2023-05-12T00:22:21.999Z,2.02
2023-05-12T00:23:21.984Z,1.88
2023-05-12T00:24:22.035Z,1.98
2023-05-12T00:25:21.983Z,1.99
2023-05-12T00:26:22.051Z,1.86
2023-05-12T00:27:21.994Z,1.64
2023-05-12T00:28:22.059Z,1.63
2023-05-12T00:29:22.052Z,1.85
2023-05-12T00:30:22.209Z,1.64
2023-05-12T00:31:22.103Z,1.34
2023-05-12T00:32:22.116Z,1.64
2023-05-12T00:33:22.036Z,1.52
2023-05-12T00:34:22.038Z,1.60
2023-05-12T00:35:22.057Z,1.60
2023-05-12T00:36:22.070Z,1.83
2023-05-12T00:37:22.080Z,1.60
2023-05-12T00:38:22.054Z,1.72
2023-05-12T00:39:22.090Z,1.67
2023-05-12T00:40:22.140Z,1.74
2023-05-12T00:41:22.081Z,1.89
2023-05-12T00:42:22.081Z,2.35
2023-05-12T00:43:22.066Z,1.50
2023-05-12T00:44:22.091Z,1.68
2023-05-12T00:45:22.089Z,1.70
2023-05-12T00:46:22.140Z,1.70
2023-05-12T00:47:22.097Z,1.93
2023-05-12T00:48:22.097Z,1.82
2023-05-12T00:49:22.135Z,1.76
2023-05-12T00:50:22.338Z,1.86
2023-05-12T00:51:22.143Z,1.71
2023-05-12T00:52:22.138Z,1.52
2023-05-12T00:53:22.127Z,1.92
2023-05-12T00:54:22.118Z,1.88
2023-05-12T00:55:22.113Z,1.56
2023-05-12T00:56:22.119Z,1.60
2023-05-12T00:57:22.146Z,1.54
2023-05-12T00:58:22.167Z,2.11
2023-05-12T00:59:22.139Z,1.87
2023-05-12T01:00:22.316Z,1.74
2023-05-12T01:01:22.193Z,1.74
2023-05-12T01:02:22.227Z,1.95
2023-05-12T01:03:22.299Z,1.77
2023-05-12T01:04:22.285Z,1.71
2023-05-12T01:05:22.264Z,1.90
2023-05-12T01:06:22.298Z,1.88
2023-05-12T01:07:22.344Z,1.93
2023-05-12T01:08:22.318Z,2.15
2023-05-12T01:09:22.315Z,1.95
2023-05-12T01:10:22.470Z,1.78
2023-05-12T01:11:22.310Z,1.89
2023-05-12T01:12:22.284Z,2.10
2023-05-12T01:13:22.314Z,1.86
2023-05-12T01:14:22.324Z,1.95
2023-05-12T01:15:22.305Z,1.91
2023-05-12T01:16:22.308Z,1.93
2023-05-12T01:17:22.385Z,2.24
2023-05-12T01:18:22.411Z,2.18
2023-05-12T01:19:22.336Z,2.07
2023-05-12T01:20:22.458Z,2.30
2023-05-12T01:21:22.319Z,2.21
2023-05-12T01:22:22.305Z,1.82
2023-05-12T01:23:22.329Z,2.12
2023-05-12T01:24:22.360Z,2.11
2023-05-12T01:25:22.331Z,2.11
2023-05-12T01:26:22.334Z,1.91
2023-05-12T01:27:22.343Z,1.79
2023-05-12T01:28:22.358Z,2.19
2023-05-12T01:29:22.421Z,1.85
2023-05-12T01:30:22.558Z,2.15
2023-05-12T01:31:22.385Z,2.29
2023-05-12T01:32:22.365Z,1.76
2023-05-12T01:33:22.403Z,2.05
2023-05-12T01:34:22.354Z,2.36
2023-05-12T01:35:22.377Z,2.17
2023-05-12T01:36:22.343Z,2.21
2023-05-12T01:37:22.389Z,2.17
2023-05-12T01:38:22.414Z,2.07
2023-05-12T01:39:22.509Z,1.94
2023-05-12T01:40:22.731Z,2.24
2023-05-12T01:41:22.622Z,1.88
2023-05-12T01:42:22.688Z,2.23
2023-05-12T01:43:22.718Z,2.24
2023-05-12T01:44:22.768Z,2.22
2023-05-12T01:45:22.725Z,2.17
2023-05-12T01:46:22.778Z,2.17
2023-05-12T01:47:22.788Z,2.23
2023-05-12T01:48:22.727Z,2.36
2023-05-12T01:49:22.713Z,1.99
2023-05-12T01:50:22.735Z,1.85
2023-05-12T01:51:22.778Z,1.85
2023-05-12T01:52:22.788Z,1.89
2023-05-12T01:53:22.761Z,2.07
2023-05-12T01:54:22.759Z,1.82
2023-05-12T01:55:22.755Z,1.63
2023-05-12T01:56:22.740Z,2.11
2023-05-12T01:57:22.773Z,1.93
2023-05-12T01:58:22.799Z,2.41
2023-05-12T01:59:22.817Z,1.73
2023-05-12T02:00:22.883Z,1.92
2023-05-12T02:01:22.805Z,2.28
2023-05-12T02:02:22.792Z,2.04
2023-05-12T02:03:23.012Z,2.27
2023-05-12T02:04:22.798Z,1.89
2023-05-12T02:05:22.777Z,2.24
2023-05-12T02:06:22.783Z,2.29
2023-05-12T02:07:22.834Z,2.28
2023-05-12T02:08:22.808Z,2.37
2023-05-12T02:09:22.823Z,2.14
2023-05-12T02:10:22.907Z,2.71
2023-05-12T02:11:22.859Z,1.86
2023-05-12T02:12:22.857Z,1.96
2023-05-12T02:13:22.835Z,2.01
2023-05-12T02:14:22.874Z,2.19
2023-05-12T02:15:22.895Z,1.96
2023-05-12T02:16:22.933Z,1.78
2023-05-12T02:17:22.898Z,1.89
2023-05-12T02:18:22.945Z,2.30
2023-05-12T02:19:22.912Z,2.19
2023-05-12T02:20:22.879Z,2.18
2023-05-12T02:21:22.893Z,1.92
2023-05-12T02:22:22.906Z,2.04
2023-05-12T02:23:22.907Z,1.89
2023-05-12T02:24:22.941Z,2.04
2023-05-12T02:25:22.937Z,1.94
2023-05-12T02:26:22.930Z,2.26
2023-05-12T02:27:22.912Z,2.19
2023-05-12T02:28:22.926Z,1.88
2023-05-12T02:29:22.926Z,1.93
2023-05-12T02:30:23.064Z,2.26
2023-05-12T02:31:22.950Z,2.16
2023-05-12T02:32:22.938Z,2.01
2023-05-12T02:33:22.898Z,2.14
2023-05-12T02:34:22.961Z,2.63
2023-05-12T02:35:22.923Z,2.55
2023-05-12T02:36:22.965Z,1.86
2023-05-12T02:37:22.917Z,1.59
2023-05-12T02:38:22.944Z,2.17
2023-05-12T02:39:22.959Z,1.82
2023-05-12T02:40:22.952Z,2.31
2023-05-12T02:41:22.963Z,2.25
2023-05-12T02:42:22.965Z,2.04
2023-05-12T02:43:22.969Z,2.05
2023-05-12T02:44:22.992Z,1.89
2023-05-12T02:45:22.999Z,2.14
2023-05-12T02:46:23.044Z,1.94
2023-05-12T02:47:23.009Z,1.82
2023-05-12T02:48:22.960Z,2.13
2023-05-12T02:49:23.021Z,1.73
2023-05-12T02:50:23.135Z,1.88
2023-05-12T02:51:23.008Z,1.94
2023-05-12T02:52:22.991Z,2.29
2023-05-12T02:53:22.976Z,2.28
2023-05-12T02:54:22.994Z,1.82
2023-05-12T02:55:23.019Z,2.40
2023-05-12T02:56:23.048Z,1.86
2023-05-12T02:57:23.035Z,2.00
2023-05-12T02:58:23.014Z,2.07
2023-05-12T02:59:23.025Z,2.07
2023-05-12T03:00:23.023Z,2.38
2023-05-12T03:01:23.031Z,2.20
2023-05-12T03:02:23.165Z,2.13
2023-05-12T03:03:23.111Z,1.67
2023-05-12T03:04:23.044Z,1.93
2023-05-12T03:05:23.026Z,2.21
2023-05-12T03:06:23.081Z,2.13
2023-05-12T03:07:23.144Z,1.88
2023-05-12T03:08:23.174Z,1.99
2023-05-12T03:09:23.206Z,2.10
2023-05-12T03:10:23.346Z,2.01
2023-05-12T03:11:23.188Z,1.84
2023-05-12T03:12:23.233Z,2.22
2023-05-12T03:13:23.229Z,1.97
2023-05-12T03:14:23.240Z,1.97
2023-05-12T03:15:23.227Z,1.90
2023-05-12T03:16:23.232Z,2.32
2023-05-12T03:17:23.247Z,1.89
2023-05-12T03:18:23.267Z,2.06
2023-05-12T03:19:23.226Z,2.23
2023-05-12T03:20:23.362Z,1.96
2023-05-12T03:21:23.245Z,2.10
2023-05-12T03:22:23.241Z,1.60
2023-05-12T03:23:23.220Z,2.30
2023-05-12T03:24:23.226Z,1.91
2023-05-12T03:25:23.216Z,1.76
2023-05-12T03:26:23.232Z,2.18
2023-05-12T03:27:23.240Z,2.35
2023-05-12T03:28:23.253Z,1.97
2023-05-12T03:29:23.243Z,1.79
2023-05-12T03:30:23.251Z,2.16
2023-05-12T03:31:23.251Z,2.01
2023-05-12T03:32:23.261Z,1.92
2023-05-12T03:33:23.253Z,1.80
2023-05-12T03:34:23.282Z,2.45
2023-05-12T03:35:23.318Z,1.86
2023-05-12T03:36:23.280Z,1.63
2023-05-12T03:37:23.336Z,2.13
2023-05-12T03:38:23.299Z,1.76
2023-05-12T03:39:23.387Z,1.91
2023-05-12T03:40:23.468Z,1.69
2023-05-12T03:41:23.326Z,1.79
2023-05-12T03:42:23.295Z,2.11
2023-05-12T03:43:23.327Z,2.03
2023-05-12T03:44:23.329Z,2.32
2023-05-12T03:45:23.303Z,1.98
2023-05-12T03:46:23.377Z,2.22
2023-05-12T03:47:23.508Z,2.11
2023-05-12T03:48:23.365Z,2.03
2023-05-12T03:49:23.342Z,1.90
2023-05-12T03:50:23.329Z,2.29
2023-05-12T03:51:23.344Z,2.13
2023-05-12T03:52:23.355Z,1.84
2023-05-12T03:53:23.378Z,2.37
2023-05-12T03:54:23.333Z,2.35
2023-05-12T03:55:23.353Z,2.12
2023-05-12T03:56:23.366Z,2.21
2023-05-12T03:57:23.361Z,2.21
2023-05-12T03:58:23.327Z,1.89
2023-05-12T03:59:23.355Z,2.23
2023-05-12T04:00:23.353Z,2.26
2023-05-12T04:01:23.368Z,2.04
2023-05-12T04:02:23.465Z,2.13
2023-05-12T04:03:23.394Z,2.09
2023-05-12T04:04:23.370Z,1.84
2023-05-12T04:05:23.358Z,2.12
2023-05-12T04:06:23.345Z,1.73
2023-05-12T04:07:23.361Z,2.24
2023-05-12T04:08:23.364Z,1.97
2023-05-12T04:09:23.355Z,1.98
2023-05-12T04:10:23.335Z,2.26
2023-05-12T04:11:23.359Z,2.10
2023-05-12T04:12:23.366Z,2.09
2023-05-12T04:13:23.329Z,1.34
2023-05-12T04:14:31.821Z,1.77
2023-05-12T04:15:24.365Z,1.87
2023-05-12T04:16:23.365Z,2.29
2023-05-12T04:17:23.363Z,2.06
2023-05-12T04:18:23.335Z,2.11
2023-05-12T04:19:23.340Z,1.69
2023-05-12T04:20:23.309Z,2.40
2023-05-12T04:21:23.301Z,1.92
2023-05-12T04:22:25.612Z,2.59
2023-05-12T04:23:23.450Z,2.23
2023-05-12T04:24:23.453Z,1.94
2023-05-12T04:25:23.458Z,2.71
2023-05-12T04:26:23.471Z,2.11
2023-05-12T04:27:23.429Z,1.98
2023-05-12T04:28:23.430Z,1.91
2023-05-12T04:29:23.449Z,2.33
2023-05-12T04:30:23.440Z,2.23
2023-05-12T04:31:23.494Z,1.89
2023-05-12T04:32:23.478Z,2.00
2023-05-12T04:33:23.475Z,1.90
2023-05-12T04:34:23.471Z,1.84
2023-05-12T04:35:23.460Z,1.87
2023-05-12T04:36:23.434Z,2.04
2023-05-12T04:37:23.417Z,1.82
2023-05-12T04:38:23.429Z,2.18
2023-05-12T04:39:23.433Z,1.94
2023-05-12T04:40:23.583Z,1.90
2023-05-12T04:41:23.467Z,2.25
2023-05-12T04:42:23.505Z,2.13
2023-05-12T04:44:23.462Z,1.84
2023-05-12T04:45:23.517Z,2.26
2023-05-12T04:46:23.529Z,2.01
2023-05-12T04:47:23.495Z,1.93
2023-05-12T04:48:23.466Z,2.02
2023-05-12T04:49:23.475Z,2.05
2023-05-12T04:50:23.447Z,2.01
2023-05-12T04:51:23.459Z,1.99
2023-05-12T04:52:24.806Z,2.47
2023-05-12T04:53:23.403Z,1.81
2023-05-12T04:54:23.428Z,1.81
2023-05-12T04:55:23.419Z,2.16
2023-05-12T04:56:23.404Z,2.00
2023-05-12T04:57:23.389Z,1.87
2023-05-12T04:58:23.402Z,2.18
2023-05-12T04:59:23.368Z,2.02
2023-05-12T05:00:23.382Z,1.73
2023-05-12T05:01:30.976Z,2.13
2023-05-12T05:02:23.433Z,2.33
2023-05-12T05:03:23.448Z,1.77
2023-05-12T05:04:23.383Z,1.74
2023-05-12T05:05:23.473Z,1.81
2023-05-12T05:06:23.353Z,1.64
2023-05-12T05:07:23.334Z,1.74
2023-05-12T05:08:23.339Z,1.83
2023-05-12T05:09:23.332Z,1.98
2023-05-12T05:10:23.305Z,1.86
2023-05-12T05:11:23.302Z,1.83
2023-05-12T05:12:23.311Z,1.87
2023-05-12T05:13:23.280Z,1.87
2023-05-12T05:14:23.306Z,1.67
2023-05-12T05:15:23.321Z,1.60
2023-05-12T05:16:23.315Z,1.47
2023-05-12T05:17:23.305Z,1.77
2023-05-12T05:18:24.227Z,1.75
2023-05-12T05:19:35.592Z,2.16
2023-05-12T05:20:27.814Z,1.88
2023-05-12T05:21:23.364Z,1.64
2023-05-12T05:22:23.308Z,1.74
2023-05-12T05:23:23.325Z,1.55
2023-05-12T05:24:23.325Z,1.20
2023-05-12T05:25:23.322Z,1.58
2023-05-12T05:26:23.375Z,1.71
2023-05-12T05:27:23.337Z,1.68
2023-05-12T05:28:23.292Z,1.59
2023-05-12T05:29:23.265Z,1.79
2023-05-12T05:30:23.294Z,3.60
2023-05-12T05:31:23.331Z,5.42
2023-05-12T05:32:23.264Z,6.08
2023-05-12T05:33:23.275Z,5.65
2023-05-12T05:34:23.339Z,6.28
2023-05-12T05:35:23.469Z,5.11
2023-05-12T05:36:23.245Z,5.25
2023-05-12T05:37:23.229Z,5.54
2023-05-12T05:38:23.237Z,5.70
2023-05-12T05:39:23.230Z,5.80
2023-05-12T05:40:23.483Z,5.81
2023-05-12T05:41:23.217Z,5.38
2023-05-12T05:42:23.184Z,5.38
2023-05-12T05:43:23.248Z,6.36
2023-05-12T05:44:23.145Z,6.37
2023-05-12T05:45:23.491Z,6.30
2023-05-12T05:46:30.161Z,6.27
2023-05-12T05:47:23.200Z,6.63
2023-05-12T05:48:23.909Z,6.90
2023-05-12T05:49:23.191Z,6.23
2023-05-12T05:50:23.160Z,5.59
2023-05-12T05:51:23.149Z,5.90
2023-05-12T05:52:23.158Z,5.41
2023-05-12T05:53:23.107Z,6.27
2023-05-12T05:54:23.152Z,5.77
2023-05-12T05:55:23.098Z,5.96
2023-05-12T05:56:23.111Z,5.36
2023-05-12T05:57:23.127Z,5.00
2023-05-12T05:58:23.138Z,5.37
2023-05-12T05:59:23.114Z,4.33
2023-05-12T06:00:23.086Z,4.00
2023-05-12T06:01:23.067Z,3.56
2023-05-12T06:02:23.169Z,2.74
2023-05-12T06:03:23.081Z,2.68
2023-05-12T06:04:23.097Z,2.77
2023-05-12T06:05:23.113Z,3.05
2023-05-12T06:06:23.036Z,2.87
2023-05-12T06:07:23.028Z,2.66
2023-05-12T06:08:23.042Z,2.75
2023-05-12T06:09:22.999Z,2.18
2023-05-12T06:10:23.057Z,2.59
2023-05-12T06:11:23.002Z,2.89
2023-05-12T06:12:22.973Z,2.67
2023-05-12T06:13:23.010Z,2.26
2023-05-12T06:14:22.981Z,1.90
2023-05-12T06:15:23.188Z,1.89
2023-05-12T06:16:22.958Z,1.75
2023-05-12T06:17:22.936Z,1.90
2023-05-12T06:18:22.950Z,2.25
2023-05-12T06:19:22.946Z,2.07
2023-05-12T06:20:22.945Z,2.14
2023-05-12T06:21:22.922Z,2.46
2023-05-12T06:22:22.926Z,1.89
2023-05-12T06:23:22.954Z,2.26
2023-05-12T06:24:22.892Z,2.23
2023-05-12T06:25:23.136Z,1.49
2023-05-12T06:26:22.868Z,2.00
2023-05-12T06:27:22.906Z,2.05
2023-05-12T06:28:22.931Z,1.87
2023-05-12T06:29:23.014Z,1.87
2023-05-12T06:30:23.096Z,1.88
2023-05-12T06:31:23.117Z,1.92
2023-05-12T06:32:23.190Z,1.72
2023-05-12T06:33:23.214Z,1.67
2023-05-12T06:34:23.307Z,2.10
2023-05-12T06:35:23.326Z,1.70
2023-05-12T06:36:23.364Z,1.71
2023-05-12T06:37:23.434Z,1.61
2023-05-12T06:38:23.487Z,1.69
2023-05-12T06:39:23.513Z,2.05
2023-05-12T06:40:23.542Z,2.47
2023-05-12T06:41:24.052Z,2.65
2023-05-12T06:42:23.618Z,2.23
2023-05-12T06:43:23.685Z,2.78
2023-05-12T06:44:23.739Z,2.10
2023-05-12T06:45:23.881Z,2.06
2023-05-12T06:46:24.056Z,2.54
2023-05-12T06:47:23.918Z,2.67
2023-05-12T06:48:23.886Z,2.26
2023-05-12T06:49:23.939Z,2.57
2023-05-12T06:50:24.004Z,2.18
2023-05-12T06:51:24.563Z,2.34
2023-05-12T06:52:24.173Z,2.29
2023-05-12T06:53:25.578Z,2.58
2023-05-12T06:54:24.291Z,2.08
2023-05-12T06:55:24.317Z,2.32
2023-05-12T06:56:24.339Z,1.79
2023-05-12T06:57:24.422Z,2.10
2023-05-12T06:58:24.471Z,2.87
2023-05-12T06:59:24.521Z,2.88
2023-05-12T07:00:24.532Z,2.65
2023-05-12T07:01:24.593Z,2.52
2023-05-12T07:02:24.614Z,2.91
2023-05-12T07:03:24.670Z,2.63
2023-05-12T07:04:26.492Z,2.30
2023-05-12T07:05:25.683Z,1.88
2023-05-12T07:06:24.866Z,2.70
2023-05-12T07:07:24.928Z,2.66
2023-05-12T07:08:24.993Z,2.41
2023-05-12T07:09:25.038Z,2.52
2023-05-12T07:10:25.105Z,3.74
2023-05-12T07:11:25.158Z,3.25
2023-05-12T07:12:25.221Z,2.94
2023-05-12T07:13:25.278Z,2.78
2023-05-12T07:14:25.301Z,3.09
2023-05-12T07:15:25.376Z,2.97
2023-05-12T07:16:25.653Z,3.36
2023-05-12T07:17:25.537Z,3.16
2023-05-12T07:18:25.566Z,3.08
2023-05-12T07:19:25.526Z,2.95
2023-05-12T07:20:25.605Z,2.90
2023-05-12T07:21:25.637Z,2.51
2023-05-12T07:22:25.688Z,6.15
2023-05-12T07:23:25.733Z,2.55
2023-05-12T07:24:25.839Z,3.05
2023-05-12T07:25:25.912Z,2.82
2023-05-12T07:26:25.915Z,2.71
2023-05-12T07:27:25.933Z,2.68
2023-05-12T07:28:25.984Z,4.15
2023-05-12T07:29:26.054Z,4.37
2023-05-12T07:30:26.351Z,3.40
2023-05-12T07:31:26.606Z,4.80
2023-05-12T07:32:26.283Z,3.50
2023-05-12T07:33:26.217Z,3.97
2023-05-12T07:34:26.242Z,4.14
2023-05-12T07:35:26.305Z,4.60
2023-05-12T07:36:26.355Z,5.79
2023-05-12T07:37:26.412Z,4.33
2023-05-12T07:38:26.426Z,4.18
2023-05-12T07:39:26.479Z,3.59
2023-05-12T07:40:26.501Z,4.58
2023-05-12T07:41:26.547Z,3.89
2023-05-12T07:42:26.585Z,4.25
2023-05-12T07:43:26.677Z,4.00
2023-05-12T07:44:26.626Z,4.26
2023-05-12T07:45:26.687Z,2.63
2023-05-12T07:46:26.812Z,2.99
2023-05-12T07:47:26.890Z,3.37
2023-05-12T07:48:26.746Z,3.19
2023-05-12T07:49:26.757Z,2.98
2023-05-12T07:50:26.742Z,3.13
2023-05-12T07:51:26.773Z,3.04
2023-05-12T07:52:26.961Z,2.33
2023-05-12T07:53:26.907Z,2.75
2023-05-12T07:54:26.934Z,2.70
2023-05-12T07:55:26.985Z,2.10
2023-05-12T07:56:27.064Z,2.37
2023-05-12T07:57:27.032Z,2.40
2023-05-12T07:58:27.083Z,2.43
2023-05-12T07:59:27.149Z,2.05
2023-05-12T08:00:27.068Z,2.05
2023-05-12T08:01:27.525Z,2.09
2023-05-12T08:02:27.211Z,1.90
2023-05-12T08:03:27.266Z,1.86
2023-05-12T08:04:27.163Z,2.27
2023-05-12T08:05:27.133Z,1.73
2023-05-12T08:06:27.538Z,1.72
2023-05-12T08:07:27.136Z,1.63
2023-05-12T08:08:27.144Z,1.82
2023-05-12T08:09:27.190Z,1.41
2023-05-12T08:10:27.163Z,2.21
2023-05-12T08:11:27.574Z,1.41
2023-05-12T08:12:27.133Z,2.17
2023-05-12T08:13:27.132Z,1.49
2023-05-12T08:14:27.155Z,1.79
2023-05-12T08:15:27.194Z,1.63
2023-05-12T08:16:27.226Z,1.42
2023-05-12T08:17:29.253Z,2.01
2023-05-12T08:18:27.340Z,1.48
2023-05-12T08:19:27.223Z,1.24
2023-05-12T08:20:28.073Z,1.70
2023-05-12T08:21:27.256Z,1.65
2023-05-12T08:22:27.340Z,1.48
2023-05-12T08:23:27.401Z,1.23
2023-05-12T08:24:27.473Z,1.62
2023-05-12T08:25:27.484Z,1.43
2023-05-12T08:26:27.575Z,0.97
2023-05-12T08:27:27.605Z,1.71
2023-05-12T08:28:27.628Z,1.47
2023-05-12T08:29:27.700Z,2.11
2023-05-12T08:30:27.732Z,1.67
2023-05-12T08:31:28.095Z,2.81
2023-05-12T08:32:27.837Z,2.38
2023-05-12T08:33:27.845Z,2.34
2023-05-12T08:34:27.936Z,3.09
2023-05-12T08:35:27.886Z,2.85
2023-05-12T08:36:27.856Z,2.80
2023-05-12T08:37:27.916Z,3.09
2023-05-12T08:38:27.909Z,2.92
2023-05-12T08:39:27.955Z,2.72
2023-05-12T08:40:27.914Z,2.59
2023-05-12T08:41:27.921Z,3.12
2023-05-12T08:42:27.923Z,2.73
2023-05-12T08:43:27.925Z,2.48
2023-05-12T08:44:27.942Z,2.52
2023-05-12T08:45:28.525Z,2.64
2023-05-12T08:46:27.976Z,2.32
2023-05-12T08:47:28.568Z,2.26
2023-05-12T08:48:27.960Z,2.43
2023-05-12T08:49:27.971Z,2.15
2023-05-12T08:50:27.979Z,2.54
2023-05-12T08:51:28.121Z,2.86
2023-05-12T08:52:27.979Z,3.08
2023-05-12T08:53:28.059Z,2.99
2023-05-12T08:54:28.008Z,2.15
2023-05-12T08:55:31.832Z,2.46
2023-05-12T08:57:29.464Z,2.05
2023-05-12T08:58:40.398Z,2.31
2023-05-12T08:59:29.146Z,2.50
2023-05-12T09:00:28.049Z,2.01
2023-05-12T09:01:28.066Z,1.93
2023-05-12T09:02:32.727Z,2.03
2023-05-12T09:03:29.041Z,1.90
2023-05-12T09:04:27.984Z,2.27
2023-05-12T09:05:27.939Z,2.33
2023-05-12T09:06:27.959Z,1.68
2023-05-12T09:07:28.082Z,2.55
2023-05-12T09:08:27.956Z,1.96
2023-05-12T09:09:27.976Z,1.77
2023-05-12T09:10:35.106Z,2.38
2023-05-12T09:11:28.913Z,2.26
2023-05-12T09:12:27.908Z,2.01
2023-05-12T09:13:27.893Z,2.11
2023-05-12T09:14:27.910Z,1.81
2023-05-12T09:15:27.897Z,2.05
2023-05-12T09:16:27.880Z,2.31
2023-05-12T09:17:27.860Z,2.07
2023-05-12T09:18:27.920Z,2.24
2023-05-12T09:19:27.882Z,1.85
2023-05-12T09:20:31.843Z,1.63
2023-05-12T09:21:27.881Z,1.75
2023-05-12T09:22:27.875Z,1.56
2023-05-12T09:23:27.816Z,1.66
2023-05-12T09:24:27.890Z,1.54
2023-05-12T09:25:27.840Z,1.67
2023-05-12T09:26:27.824Z,1.51
2023-05-12T09:27:28.152Z,1.45
2023-05-12T09:28:27.781Z,1.17
2023-05-12T09:29:31.932Z,1.50
2023-05-12T09:30:27.835Z,1.38
2023-05-12T09:31:27.748Z,1.41
2023-05-12T09:32:27.762Z,1.28
2023-05-12T09:33:27.747Z,1.09
2023-05-12T09:34:27.736Z,1.24
2023-05-12T09:35:27.729Z,1.44
2023-05-12T09:36:27.770Z,1.50
2023-05-12T09:37:27.737Z,1.38
2023-05-12T09:38:27.746Z,1.61
2023-05-12T09:39:28.590Z,1.30
2023-05-12T09:40:27.714Z,1.69
2023-05-12T09:41:27.741Z,1.97
2023-05-12T09:42:28.092Z,2.07
2023-05-12T09:43:27.829Z,2.18
2023-05-12T09:44:27.869Z,2.07
2023-05-12T09:45:28.020Z,1.77
2023-05-12T09:46:28.088Z,1.79
2023-05-12T09:47:28.106Z,2.67
2023-05-12T09:48:28.127Z,1.65
2023-05-12T09:49:28.162Z,1.89
2023-05-12T09:50:32.495Z,1.42
2023-05-12T09:51:29.264Z,1.19
2023-05-12T09:52:28.609Z,1.88
2023-05-12T09:53:28.230Z,1.98
2023-05-12T09:54:28.354Z,1.86
2023-05-12T09:55:28.171Z,1.44
2023-05-12T09:56:28.200Z,1.67
2023-05-12T09:57:28.196Z,1.65
2023-05-12T09:58:28.150Z,2.01
2023-05-12T09:59:28.165Z,1.69
2023-05-12T10:00:41.159Z,1.30
2023-05-12T10:01:29.225Z,1.58
2023-05-12T10:02:28.656Z,1.59
2023-05-12T10:03:28.162Z,1.88
2023-05-12T10:04:28.177Z,1.91
2023-05-12T10:05:28.128Z,1.91
2023-05-12T10:06:28.180Z,1.57
2023-05-12T10:07:28.606Z,1.54
2023-05-12T10:08:28.097Z,1.73
2023-05-12T10:09:28.133Z,1.43
2023-05-12T10:10:28.153Z,1.89
2023-05-12T10:11:28.117Z,1.42
2023-05-12T10:12:28.184Z,1.19
2023-05-12T10:13:28.084Z,1.09
2023-05-12T10:14:28.118Z,1.08
2023-05-12T10:15:28.103Z,1.04
2023-05-12T10:16:28.118Z,1.08
2023-05-12T10:17:28.154Z,1.36
2023-05-12T10:18:28.076Z,1.17
2023-05-12T10:19:28.079Z,1.19
2023-05-12T10:20:28.084Z,1.47
2023-05-12T10:21:28.147Z,1.21
2023-05-12T10:22:28.205Z,1.24
2023-05-12T10:23:28.240Z,1.31
2023-05-12T10:24:28.286Z,1.49
2023-05-12T10:25:28.233Z,1.18
2023-05-12T10:26:28.301Z,1.17
2023-05-12T10:27:28.625Z,1.14
2023-05-12T10:28:28.399Z,1.15
2023-05-12T10:29:28.417Z,1.39
2023-05-12T10:30:28.510Z,1.27
2023-05-12T10:31:28.530Z,1.06
2023-05-12T10:32:28.614Z,1.12
2023-05-12T10:33:28.635Z,1.24
2023-05-12T10:34:28.578Z,1.50
2023-05-12T10:35:28.615Z,1.02
2023-05-12T10:36:28.652Z,1.41
2023-05-12T10:37:29.147Z,1.34
2023-05-12T10:38:28.634Z,1.87
2023-05-12T10:39:28.695Z,1.67
2023-05-12T10:40:28.720Z,1.53
2023-05-12T10:41:28.801Z,1.39
2023-05-12T10:42:28.824Z,1.43
2023-05-12T10:43:28.831Z,1.43
2023-05-12T10:44:28.811Z,1.26
2023-05-12T10:45:28.822Z,1.23
2023-05-12T10:46:28.901Z,1.23
2023-05-12T10:47:28.867Z,1.08
2023-05-12T10:48:28.968Z,0.85
2023-05-12T10:49:28.999Z,0.86
2023-05-12T10:50:29.062Z,1.02
2023-05-12T10:51:29.188Z,1.16
2023-05-12T10:52:29.165Z,0.99
2023-05-12T10:53:41.455Z,1.16
2023-05-12T10:54:30.286Z,0.96
2023-05-12T10:55:29.333Z,1.02
2023-05-12T10:56:29.467Z,0.97
2023-05-12T10:57:29.412Z,1.01
2023-05-12T10:58:29.873Z,1.48
2023-05-12T10:59:29.543Z,0.93
2023-05-12T11:00:29.494Z,0.98
2023-05-12T11:01:29.734Z,0.87
2023-05-12T11:02:30.812Z,0.91
2023-05-12T11:03:30.305Z,0.91
2023-05-12T11:04:29.696Z,0.74
2023-05-12T11:05:29.387Z,0.70
2023-05-12T11:06:29.253Z,0.83
2023-05-12T11:07:30.293Z,0.70
2023-05-12T11:08:30.184Z,1.11
2023-05-12T11:09:29.443Z,0.71
2023-05-12T11:10:29.360Z,0.67
2023-05-12T11:11:29.623Z,1.01
2023-05-12T11:12:29.113Z,0.84
2023-05-12T11:13:29.157Z,0.68
2023-05-12T11:14:29.107Z,0.62
2023-05-12T11:15:29.135Z,0.62
2023-05-12T11:16:29.161Z,0.49
2023-05-12T11:17:29.178Z,0.60
2023-05-12T11:18:29.052Z,1.12
2023-05-12T11:19:29.055Z,0.67
2023-05-12T11:20:30.890Z,0.54
2023-05-12T11:21:29.033Z,0.84
2023-05-12T11:22:29.066Z,0.59
2023-05-12T11:23:29.215Z,0.69
2023-05-12T11:24:29.035Z,0.43
2023-05-12T11:25:29.040Z,0.66
2023-05-12T11:26:28.995Z,0.53
2023-05-12T11:27:29.014Z,0.65
2023-05-12T11:28:29.183Z,0.61
2023-05-12T11:29:29.065Z,0.74
2023-05-12T11:30:29.078Z,0.80
2023-05-12T11:31:29.155Z,1.01
2023-05-12T11:32:29.193Z,0.87
2023-05-12T11:33:29.654Z,0.84
2023-05-12T11:34:29.212Z,0.62
2023-05-12T11:35:29.257Z,0.77
2023-05-12T11:36:29.335Z,1.15
2023-05-12T11:37:29.375Z,1.08
2023-05-12T11:38:29.630Z,0.87
2023-05-12T11:39:29.435Z,0.83
2023-05-12T11:40:29.496Z,0.85
2023-05-12T11:41:29.490Z,0.76
2023-05-12T11:42:29.565Z,0.67
2023-05-12T11:43:29.649Z,0.89
2023-05-12T11:44:29.574Z,0.72
2023-05-12T11:45:29.610Z,0.94
2023-05-12T11:46:29.940Z,1.02
2023-05-12T11:47:29.683Z,0.78
2023-05-12T11:48:29.663Z,0.68
2023-05-12T11:49:29.671Z,0.57
2023-05-12T11:50:29.704Z,0.54
2023-05-12T11:51:29.753Z,0.45
2023-05-12T11:52:29.736Z,0.83
2023-05-12T11:53:29.726Z,1.37
2023-05-12T11:54:29.732Z,0.77
2023-05-12T11:55:29.777Z,0.62
2023-05-12T11:56:29.774Z,0.75
2023-05-12T11:57:29.749Z,0.60
2023-05-12T11:58:29.773Z,0.54
2023-05-12T11:59:29.807Z,0.58
2023-05-12T12:00:29.791Z,0.66
2023-05-12T12:01:29.807Z,0.61
2023-05-12T12:02:29.918Z,0.63
2023-05-12T12:03:29.870Z,0.54
2023-05-12T12:04:29.857Z,0.66
2023-05-12T12:05:29.817Z,0.50
2023-05-12T12:06:29.816Z,0.73
2023-05-12T12:07:29.827Z,0.72
2023-05-12T12:08:29.837Z,0.63
2023-05-12T12:09:29.827Z,0.75
2023-05-12T12:10:29.816Z,0.69
2023-05-12T12:11:29.818Z,0.56
2023-05-12T12:12:29.837Z,0.52
2023-05-12T12:13:29.896Z,0.45
2023-05-12T12:14:29.947Z,0.44
2023-05-12T12:15:29.990Z,0.72
2023-05-12T12:16:30.022Z,0.68
2023-05-12T12:17:30.056Z,0.59
2023-05-12T12:18:30.078Z,0.55
2023-05-12T12:19:30.121Z,0.62
2023-05-12T12:20:30.151Z,0.67
2023-05-12T12:21:30.186Z,0.73
2023-05-12T12:22:30.183Z,0.87
2023-05-12T12:23:35.300Z,0.62
2023-05-12T12:24:31.229Z,0.93
2023-05-12T12:25:30.227Z,0.69
2023-05-12T12:26:30.213Z,0.82
2023-05-12T12:27:30.200Z,0.72
2023-05-12T12:28:30.185Z,1.03
2023-05-12T12:29:30.176Z,0.93
2023-05-12T12:30:30.207Z,0.64
2023-05-12T12:31:30.231Z,0.66
2023-05-12T12:32:30.174Z,0.65
2023-05-12T12:33:30.165Z,0.68
2023-05-12T12:34:30.177Z,0.99
2023-05-12T12:35:30.147Z,0.81
2023-05-12T12:36:30.136Z,0.84
2023-05-12T12:37:30.124Z,0.69
2023-05-12T12:38:30.145Z,0.65
2023-05-12T12:39:30.147Z,0.67
2023-05-12T12:40:30.103Z,1.90
2023-05-12T12:41:30.124Z,0.70
2023-05-12T12:42:30.119Z,0.75
2023-05-12T12:43:30.090Z,0.64
2023-05-12T12:44:30.143Z,0.91
2023-05-12T12:45:30.108Z,0.40
2023-05-12T12:46:30.135Z,1.04
2023-05-12T12:47:30.170Z,0.53
2023-05-12T12:48:30.073Z,0.55
2023-05-12T12:49:30.075Z,0.48
2023-05-12T12:50:30.091Z,0.60
2023-05-12T12:51:42.109Z,0.72
2023-05-12T12:52:31.044Z,0.52
2023-05-12T12:53:30.090Z,0.55
2023-05-12T12:54:30.044Z,0.60
2023-05-12T12:55:30.047Z,0.68
2023-05-12T12:56:30.031Z,0.61
2023-05-12T12:57:30.065Z,0.81
2023-05-12T12:58:30.086Z,0.50
2023-05-12T12:59:30.031Z,0.42
2023-05-12T13:00:30.006Z,0.40
2023-05-12T13:01:30.171Z,0.60
2023-05-12T13:02:30.074Z,0.64
2023-05-12T13:03:30.057Z,0.70
2023-05-12T13:04:30.062Z,0.67
2023-05-12T13:05:29.999Z,0.62
2023-05-12T13:06:29.957Z,0.68
2023-05-12T13:07:29.962Z,0.56
2023-05-12T13:08:29.972Z,0.52
2023-05-12T13:09:29.931Z,0.65
2023-05-12T13:10:29.918Z,0.65
2023-05-12T13:11:29.958Z,0.78
2023-05-12T13:12:29.923Z,0.48
2023-05-12T13:13:29.920Z,0.36
2023-05-12T13:14:29.937Z,0.87
2023-05-12T13:15:29.908Z,0.52
2023-05-12T13:16:29.947Z,0.73
2023-05-12T13:17:29.892Z,0.60
2023-05-12T13:18:29.907Z,0.68
2023-05-12T13:19:29.884Z,0.46
2023-05-12T13:20:29.875Z,0.68